createdAt,value
2019-06-19T00:00:52.481Z,99.82
2019-06-19T00:01:52.471Z,99.99
2019-06-19T00:02:53.284Z,99.99
2019-06-19T00:03:53.198Z,99.99
2019-06-19T00:04:52.693Z,99.99
2019-06-19T00:05:52.999Z,99.99
2019-06-19T00:06:52.429Z,99.99
2019-06-19T00:07:53.729Z,98.77
2019-06-19T00:08:52.384Z,99.99
2019-06-19T00:09:53.089Z,99.99
2019-06-19T00:10:52.939Z,99.99
2019-06-19T00:11:52.933Z,99.48
2019-06-19T00:12:53.066Z,99.48
2019-06-19T00:13:52.937Z,99.99
2019-06-19T00:14:52.693Z,99.99
2019-06-19T00:15:52.612Z,99.99
2019-06-19T00:16:53.378Z,99.99
2019-06-19T00:17:53.649Z,99.77
2019-06-19T00:18:53.186Z,98.81
2019-06-19T00:19:53.476Z,98.62
2019-06-19T00:20:52.267Z,98.33
2019-06-19T00:21:52.810Z,95.94
2019-06-19T00:22:53.071Z,97.66
2019-06-19T00:23:52.966Z,98.47
2019-06-19T00:24:53.142Z,97.33
2019-06-19T00:25:52.652Z,96.56
2019-06-19T00:26:50.832Z,98.00
2019-06-19T00:27:50.781Z,97.14
2019-06-19T00:28:51.092Z,95.79
2019-06-19T00:29:51.409Z,95.79
2019-06-19T00:30:52.918Z,96.84
2019-06-19T00:31:51.243Z,95.89
2019-06-19T00:32:51.368Z,95.70
2019-06-19T00:33:51.735Z,96.08
2019-06-19T00:34:50.966Z,97.04
2019-06-19T00:35:51.744Z,96.37
2019-06-19T00:36:50.976Z,96.18
2019-06-19T00:37:50.887Z,96.94
2019-06-19T00:38:51.083Z,97.52
2019-06-19T00:39:51.410Z,96.94
2019-06-19T00:40:51.942Z,96.56
2019-06-19T00:41:51.096Z,97.42
2019-06-19T00:42:51.571Z,95.89
2019-06-19T00:43:51.088Z,96.37
2019-06-19T00:44:51.435Z,97.04
2019-06-19T00:45:51.334Z,95.60
2019-06-19T00:46:51.519Z,96.75
2019-06-19T00:47:51.368Z,98.19
2019-06-19T00:48:51.835Z,95.89
2019-06-19T00:49:51.601Z,96.94
2019-06-19T00:50:51.272Z,95.98
2019-06-19T00:51:52.142Z,97.52
2019-06-19T00:52:51.368Z,96.56
2019-06-19T00:53:51.162Z,96.56
2019-06-19T00:54:50.732Z,95.51
2019-06-19T00:55:51.025Z,95.31
2019-06-19T00:56:50.963Z,95.22
2019-06-19T00:57:51.520Z,94.55
2019-06-19T00:58:51.181Z,96.56
2019-06-19T00:59:57.971Z,97.04
2019-06-19T01:00:51.749Z,97.42
2019-06-19T01:01:50.824Z,96.47
2019-06-19T01:02:51.332Z,97.33
2019-06-19T01:03:51.450Z,96.47
2019-06-19T01:04:51.799Z,97.52
2019-06-19T01:05:51.764Z,96.80
2019-06-19T01:06:51.149Z,95.60
2019-06-19T01:07:51.325Z,97.33
2019-06-19T01:08:49.398Z,97.75
2019-06-19T01:09:50.991Z,97.56
2019-06-19T01:10:50.984Z,97.38
2019-06-19T01:11:51.472Z,97.66
2019-06-19T01:12:50.790Z,98.33
2019-06-19T01:13:51.646Z,97.66
2019-06-19T01:14:51.303Z,95.27
2019-06-19T01:15:50.811Z,93.93
2019-06-19T01:16:51.033Z,94.69
2019-06-19T01:17:50.839Z,95.65
2019-06-19T01:18:51.280Z,96.32
2019-06-19T01:19:50.845Z,94.60
2019-06-19T01:20:51.061Z,94.31
2019-06-19T01:21:51.342Z,94.98
2019-06-19T01:22:51.525Z,95.36
2019-06-19T01:23:51.296Z,94.31
2019-06-19T01:24:51.057Z,95.17
2019-06-19T01:25:48.832Z,95.07
2019-06-19T01:26:51.064Z,94.50
2019-06-19T01:27:50.971Z,94.98
2019-06-19T01:28:51.001Z,93.93
2019-06-19T01:29:50.631Z,92.97
2019-06-19T01:30:50.909Z,92.78
2019-06-19T01:31:50.650Z,93.16
2019-06-19T01:32:51.183Z,92.97
2019-06-19T01:33:50.618Z,94.02
2019-06-19T01:34:50.798Z,93.74
2019-06-19T01:35:50.830Z,94.45
2019-06-19T01:36:50.727Z,93.79
2019-06-19T01:37:51.290Z,93.54
2019-06-19T01:38:48.380Z,94.07
2019-06-19T01:39:50.981Z,93.21
2019-06-19T01:40:51.118Z,92.63
2019-06-19T01:41:48.287Z,93.30
2019-06-19T01:42:48.253Z,93.50
2019-06-19T01:43:48.224Z,93.59
2019-06-19T01:44:48.181Z,93.30
2019-06-19T01:45:48.160Z,92.25
2019-06-19T01:46:48.121Z,92.30
2019-06-19T01:47:48.078Z,93.30
2019-06-19T01:48:48.050Z,93.50
2019-06-19T01:49:48.012Z,92.44
2019-06-19T01:50:50.459Z,92.63
2019-06-19T01:51:47.962Z,92.54
2019-06-19T01:52:47.953Z,92.44
2019-06-19T01:53:47.910Z,92.06
2019-06-19T01:54:47.879Z,92.16
2019-06-19T01:55:47.816Z,92.16
2019-06-19T01:56:47.813Z,92.06
2019-06-19T01:57:47.799Z,92.35
2019-06-19T01:58:47.752Z,92.83
2019-06-19T01:59:47.705Z,92.83
2019-06-19T02:00:47.670Z,92.83
2019-06-19T02:01:47.634Z,92.25
2019-06-19T02:02:47.618Z,91.77
2019-06-19T02:03:47.556Z,91.58
2019-06-19T02:04:47.551Z,91.20
2019-06-19T02:05:47.512Z,91.63
2019-06-19T02:06:47.478Z,92.54
2019-06-19T02:07:47.423Z,92.06
2019-06-19T02:08:47.408Z,92.16
2019-06-19T02:09:47.337Z,91.68
2019-06-19T02:10:47.300Z,92.11
2019-06-19T02:11:47.270Z,92.54
2019-06-19T02:12:47.241Z,92.58
2019-06-19T02:13:51.245Z,92.44
2019-06-19T02:14:47.184Z,92.44
2019-06-19T02:15:47.138Z,92.21
2019-06-19T02:16:47.130Z,91.87
2019-06-19T02:17:47.071Z,91.82
2019-06-19T02:18:47.040Z,92.01
2019-06-19T02:19:47.010Z,92.01
2019-06-19T02:20:46.965Z,92.40
2019-06-19T02:21:46.934Z,91.92
2019-06-19T02:22:46.899Z,92.06
2019-06-19T02:23:46.865Z,92.44
2019-06-19T02:24:46.838Z,92.21
2019-06-19T02:25:46.809Z,92.68
2019-06-19T02:26:46.763Z,91.68
2019-06-19T02:27:46.755Z,91.34
2019-06-19T02:28:46.719Z,91.82
2019-06-19T02:29:46.689Z,92.21
2019-06-19T02:31:04.293Z,92.58
2019-06-19T02:31:46.615Z,92.11
2019-06-19T02:32:46.583Z,92.58
2019-06-19T02:33:46.565Z,92.58
2019-06-19T02:34:46.542Z,92.40
2019-06-19T02:35:46.467Z,92.68
2019-06-19T02:36:46.438Z,92.87
2019-06-19T02:37:46.416Z,92.49
2019-06-19T02:38:46.401Z,92.30
2019-06-19T02:39:46.351Z,92.58
2019-06-19T02:40:46.318Z,92.30
2019-06-19T02:41:46.277Z,93.26
2019-06-19T02:42:46.279Z,93.45
2019-06-19T02:43:46.200Z,93.74
2019-06-19T02:44:48.678Z,93.74
2019-06-19T02:45:46.125Z,92.21
2019-06-19T02:46:46.091Z,92.87
2019-06-19T02:47:46.059Z,91.92
2019-06-19T02:48:46.020Z,93.74
2019-06-19T02:49:45.986Z,93.83
2019-06-19T02:50:45.959Z,94.50
2019-06-19T02:51:45.926Z,94.40
2019-06-19T02:52:45.894Z,93.74
2019-06-19T02:53:45.860Z,93.45
2019-06-19T02:54:45.816Z,93.45
2019-06-19T02:55:45.785Z,93.45
2019-06-19T02:56:45.759Z,92.21
2019-06-19T02:57:45.720Z,92.30
2019-06-19T02:58:45.720Z,92.78
2019-06-19T02:59:45.653Z,93.45
2019-06-19T03:00:45.625Z,94.31
2019-06-19T03:01:45.609Z,93.83
2019-06-19T03:02:45.578Z,94.31
2019-06-19T03:03:45.543Z,93.93
2019-06-19T03:04:45.500Z,93.45
2019-06-19T03:05:45.498Z,93.64
2019-06-19T03:06:45.441Z,92.78
2019-06-19T03:07:45.430Z,92.58
2019-06-19T03:08:45.369Z,92.01
2019-06-19T03:09:45.313Z,93.26
2019-06-19T03:10:45.327Z,93.45
2019-06-19T03:11:45.280Z,92.97
2019-06-19T03:12:45.232Z,93.54
2019-06-19T03:13:45.189Z,93.26
2019-06-19T03:14:45.214Z,92.30
2019-06-19T03:15:45.125Z,92.30
2019-06-19T03:16:45.082Z,92.40
2019-06-19T03:17:45.055Z,92.40
2019-06-19T03:18:45.024Z,93.26
2019-06-19T03:19:44.982Z,93.16
2019-06-19T03:20:44.951Z,93.35
2019-06-19T03:21:44.914Z,93.74
2019-06-19T03:22:44.886Z,92.78
2019-06-19T03:23:44.845Z,93.93
2019-06-19T03:24:44.818Z,93.74
2019-06-19T03:25:44.805Z,93.07
2019-06-19T03:26:44.750Z,92.68
2019-06-19T03:27:44.717Z,92.11
2019-06-19T03:28:44.705Z,93.45
2019-06-19T03:29:44.701Z,93.35
2019-06-19T03:30:44.627Z,94.31
2019-06-19T03:31:44.621Z,93.26
2019-06-19T03:32:44.571Z,93.35
2019-06-19T03:33:44.550Z,94.40
2019-06-19T03:34:44.472Z,93.54
2019-06-19T03:35:44.473Z,92.40
2019-06-19T03:36:44.426Z,93.16
2019-06-19T03:37:44.380Z,92.78
2019-06-19T03:38:44.376Z,92.58
2019-06-19T03:39:44.336Z,92.58
2019-06-19T03:40:44.326Z,92.78
2019-06-19T03:41:44.412Z,92.21
2019-06-19T03:42:44.281Z,92.11
2019-06-19T03:43:44.217Z,93.07
2019-06-19T03:44:44.147Z,93.16
2019-06-19T03:45:44.151Z,93.74
2019-06-19T03:46:44.105Z,92.78
2019-06-19T03:47:44.066Z,93.07
2019-06-19T03:48:44.030Z,93.26
2019-06-19T03:49:43.990Z,93.02
2019-06-19T03:50:43.958Z,93.49
2019-06-19T03:51:43.946Z,93.69
2019-06-19T03:52:43.922Z,94.17
2019-06-19T03:53:43.846Z,94.26
2019-06-19T03:54:43.797Z,94.35
2019-06-19T03:55:43.774Z,93.88
2019-06-19T03:56:43.725Z,94.45
2019-06-19T03:57:43.759Z,93.40
2019-06-19T03:58:43.691Z,93.30
2019-06-19T03:59:43.659Z,93.11
2019-06-19T04:00:43.625Z,93.21
2019-06-19T04:01:49.362Z,93.40
2019-06-19T04:02:43.574Z,93.78
2019-06-19T04:03:43.533Z,93.88
2019-06-19T04:04:43.474Z,93.78
2019-06-19T04:05:43.426Z,93.69
2019-06-19T04:06:43.415Z,93.69
2019-06-19T04:07:43.385Z,94.40
2019-06-19T04:08:43.365Z,95.65
2019-06-19T04:09:43.309Z,96.08
2019-06-19T04:10:43.295Z,98.33
2019-06-19T04:11:43.283Z,98.52
2019-06-19T04:12:43.212Z,99.10
2019-06-19T04:13:43.196Z,98.57
2019-06-19T04:14:43.195Z,99.01
2019-06-19T04:15:43.106Z,99.82
2019-06-19T04:16:43.078Z,99.99
2019-06-19T04:17:43.051Z,98.86
2019-06-19T04:18:42.995Z,99.99
2019-06-19T04:19:42.975Z,98.52
2019-06-19T04:20:42.944Z,98.77
2019-06-19T04:21:42.946Z,98.77
2019-06-19T04:22:42.904Z,98.48
2019-06-19T04:23:42.841Z,99.99
2019-06-19T04:24:42.798Z,99.99
2019-06-19T04:25:42.774Z,99.99
2019-06-19T04:26:42.730Z,99.99
2019-06-19T04:27:42.719Z,99.99
2019-06-19T04:28:42.691Z,99.99
2019-06-19T04:29:42.682Z,99.24
2019-06-19T04:30:42.656Z,98.48
2019-06-19T04:31:42.582Z,98.57
2019-06-19T04:32:42.573Z,99.01
2019-06-19T04:33:42.529Z,99.49
2019-06-19T04:34:42.528Z,99.99
2019-06-19T04:35:42.507Z,99.99
2019-06-19T04:36:42.443Z,99.99
2019-06-19T04:37:42.428Z,99.99
2019-06-19T04:38:42.392Z,99.99
2019-06-19T04:39:42.334Z,99.99
2019-06-19T04:40:42.280Z,99.99
2019-06-19T04:41:42.257Z,99.99
2019-06-19T04:42:42.248Z,99.99
2019-06-19T04:43:42.207Z,99.99
2019-06-19T04:44:42.151Z,99.99
2019-06-19T04:45:42.117Z,99.99
2019-06-19T04:46:42.120Z,99.99
2019-06-19T04:47:42.049Z,99.99
2019-06-19T04:48:42.033Z,99.99
2019-06-19T04:49:41.998Z,99.99
2019-06-19T04:50:41.968Z,99.99
2019-06-19T04:51:41.937Z,99.99
2019-06-19T04:52:44.726Z,99.99
2019-06-19T04:53:41.877Z,99.99
2019-06-19T04:54:41.839Z,99.99
2019-06-19T04:55:41.811Z,99.99
2019-06-19T04:56:41.798Z,99.99
2019-06-19T04:57:41.753Z,99.99
2019-06-19T04:58:41.732Z,99.99
2019-06-19T04:59:41.690Z,99.99
2019-06-19T05:00:41.708Z,99.99
2019-06-19T05:01:41.665Z,99.99
2019-06-19T05:02:41.599Z,99.99
2019-06-19T05:03:41.613Z,99.99
2019-06-19T05:04:41.541Z,99.99
2019-06-19T05:05:41.545Z,99.99
2019-06-19T05:06:41.502Z,99.99
2019-06-19T05:07:41.457Z,99.99
2019-06-19T05:08:41.455Z,99.99
2019-06-19T05:09:41.430Z,99.99
2019-06-19T05:10:41.357Z,99.99
2019-06-19T05:11:41.336Z,99.99
2019-06-19T05:12:41.311Z,99.99
2019-06-19T05:13:41.278Z,99.99
2019-06-19T05:14:41.243Z,99.99
2019-06-19T05:15:41.218Z,99.99
2019-06-19T05:16:41.199Z,99.99
2019-06-19T05:17:41.156Z,99.99
2019-06-19T05:18:41.131Z,99.99
2019-06-19T05:19:41.106Z,99.99
2019-06-19T05:20:41.075Z,99.99
2019-06-19T05:21:41.051Z,99.99
2019-06-19T05:22:41.018Z,97.47
2019-06-19T05:23:40.994Z,92.42
2019-06-19T05:24:40.964Z,91.16
2019-06-19T05:25:40.937Z,94.66
2019-06-19T05:26:40.928Z,99.99
2019-06-19T05:27:40.915Z,99.99
2019-06-19T05:28:40.896Z,99.99
2019-06-19T05:29:40.857Z,99.99
2019-06-19T05:30:40.803Z,99.99
2019-06-19T05:31:40.785Z,99.99
2019-06-19T05:32:40.754Z,99.99
2019-06-19T05:33:40.743Z,99.99
2019-06-19T05:34:40.706Z,99.99
2019-06-19T05:35:40.674Z,99.99
2019-06-19T05:36:40.664Z,99.99
2019-06-19T05:37:40.628Z,99.99
2019-06-19T05:38:40.602Z,99.99
2019-06-19T05:39:40.569Z,98.30
2019-06-19T05:40:40.543Z,98.44
2019-06-19T05:41:40.507Z,93.73
2019-06-19T05:42:40.478Z,92.18
2019-06-19T05:43:40.461Z,93.59
2019-06-19T05:44:40.446Z,94.80
2019-06-19T05:45:40.403Z,95.57
2019-06-19T05:46:40.370Z,99.36
2019-06-19T05:47:40.370Z,99.99
2019-06-19T05:48:40.331Z,99.99
2019-06-19T05:49:40.293Z,99.99
2019-06-19T05:50:40.274Z,99.99
2019-06-19T05:51:40.257Z,99.99
2019-06-19T05:52:40.231Z,99.99
2019-06-19T05:53:40.219Z,99.99
2019-06-19T05:54:40.177Z,99.99
2019-06-19T05:55:40.153Z,99.99
2019-06-19T05:56:40.124Z,99.99
2019-06-19T05:57:40.162Z,99.99
2019-06-19T05:58:40.086Z,99.99
2019-06-19T05:59:40.072Z,99.99
2019-06-19T06:00:40.060Z,99.99
2019-06-19T06:01:40.104Z,99.99
2019-06-19T06:02:51.539Z,99.99
2019-06-19T06:03:39.955Z,99.99
2019-06-19T06:04:39.938Z,99.99
2019-06-19T06:05:39.915Z,99.99
2019-06-19T06:06:39.892Z,99.99
2019-06-19T06:07:39.883Z,99.99
2019-06-19T06:08:39.809Z,99.99
2019-06-19T06:09:39.781Z,99.99
2019-06-19T06:10:39.780Z,99.99
2019-06-19T06:11:39.731Z,93.35
2019-06-19T06:12:39.728Z,90.68
2019-06-19T06:13:39.673Z,89.47
2019-06-19T06:14:39.671Z,92.48
2019-06-19T06:15:39.666Z,94.42
2019-06-19T06:16:39.680Z,97.91
2019-06-19T06:17:39.612Z,91.94
2019-06-19T06:18:39.563Z,91.55
2019-06-19T06:19:39.524Z,88.86
2019-06-19T06:20:39.493Z,81.75
2019-06-19T06:21:39.478Z,79.64
2019-06-19T06:22:39.472Z,78.96
2019-06-19T06:23:39.438Z,78.34
2019-06-19T06:24:39.394Z,78.79
2019-06-19T06:25:39.399Z,80.89
2019-06-19T06:26:39.344Z,81.43
2019-06-19T06:27:39.315Z,80.66
2019-06-19T06:28:39.304Z,78.67
2019-06-19T06:29:39.281Z,82.75
2019-06-19T06:30:39.275Z,82.75
2019-06-19T06:31:39.240Z,83.37
2019-06-19T06:32:39.201Z,79.55
2019-06-19T06:33:39.183Z,83.78
2019-06-19T06:34:39.176Z,84.50
2019-06-19T06:35:39.126Z,80.58
2019-06-19T06:36:39.099Z,83.00
2019-06-19T06:37:39.115Z,81.45
2019-06-19T06:38:39.070Z,80.71
2019-06-19T06:39:39.027Z,82.27
2019-06-19T06:40:47.863Z,81.39
2019-06-19T06:41:38.982Z,81.10
2019-06-19T06:42:38.968Z,84.07
2019-06-19T06:43:38.919Z,81.59
2019-06-19T06:44:38.885Z,81.01
2019-06-19T06:45:38.863Z,82.50
2019-06-19T06:46:38.837Z,79.59
2019-06-19T06:47:38.818Z,78.36
2019-06-19T06:48:38.797Z,79.14
2019-06-19T06:49:38.764Z,78.46
2019-06-19T06:50:38.736Z,77.78
2019-06-19T06:51:38.718Z,77.20
2019-06-19T06:52:38.684Z,80.60
2019-06-19T06:53:38.668Z,79.08
2019-06-19T06:54:38.659Z,76.12
2019-06-19T06:55:38.624Z,77.48
2019-06-19T06:56:38.644Z,77.62
2019-06-19T06:57:38.594Z,76.45
2019-06-19T06:58:38.571Z,75.78
2019-06-19T06:59:38.578Z,74.65
2019-06-19T07:00:38.528Z,77.73
2019-06-19T07:01:38.485Z,71.89
2019-06-19T07:02:38.448Z,72.35
2019-06-19T07:03:38.460Z,71.55
2019-06-19T07:04:38.410Z,68.36
2019-06-19T07:05:38.404Z,66.93
2019-06-19T07:06:38.389Z,66.83
2019-06-19T07:07:38.365Z,66.14
2019-06-19T07:08:38.309Z,67.05
2019-06-19T07:09:38.325Z,65.42
2019-06-19T07:10:38.288Z,65.72
2019-06-19T07:11:38.256Z,64.03
2019-06-19T07:12:38.208Z,64.03
2019-06-19T07:13:38.191Z,64.00
2019-06-19T07:14:38.167Z,65.46
2019-06-19T07:15:38.143Z,68.03
2019-06-19T07:16:38.126Z,65.26
2019-06-19T07:17:38.101Z,63.43
2019-06-19T07:18:38.097Z,62.35
2019-06-19T07:19:38.067Z,62.58
2019-06-19T07:20:38.031Z,62.19
2019-06-19T07:21:38.033Z,63.49
2019-06-19T07:22:38.023Z,63.66
2019-06-19T07:23:37.994Z,62.09
2019-06-19T07:24:37.950Z,61.93
2019-06-19T07:25:37.969Z,61.70
2019-06-19T07:26:52.190Z,63.37
2019-06-19T07:27:37.903Z,64.51
2019-06-19T07:28:37.887Z,60.10
2019-06-19T07:29:37.897Z,59.44
2019-06-19T07:30:37.888Z,60.88
2019-06-19T07:31:37.879Z,59.05
2019-06-19T07:32:37.809Z,61.10
2019-06-19T07:33:41.724Z,63.65
2019-06-19T07:34:37.768Z,60.84
2019-06-19T07:35:37.748Z,58.12
2019-06-19T07:36:37.746Z,59.23
2019-06-19T07:37:37.706Z,56.35
2019-06-19T07:38:37.743Z,59.73
2019-06-19T07:39:37.695Z,60.84
2019-06-19T07:40:37.674Z,63.98
2019-06-19T07:41:37.630Z,61.19
2019-06-19T07:42:37.617Z,58.12
2019-06-19T07:43:39.329Z,58.71
2019-06-19T07:44:37.615Z,58.58
2019-06-19T07:45:37.562Z,57.80
2019-06-19T07:46:37.521Z,58.51
2019-06-19T07:47:37.502Z,57.26
2019-06-19T07:48:37.494Z,56.90
2019-06-19T07:49:37.487Z,58.37
2019-06-19T07:50:37.449Z,57.39
2019-06-19T07:51:37.434Z,58.02
2019-06-19T07:52:37.399Z,59.52
2019-06-19T07:53:37.390Z,58.71
2019-06-19T07:54:37.418Z,57.70
2019-06-19T07:55:37.372Z,56.40
2019-06-19T07:56:37.339Z,60.52
2019-06-19T07:57:37.365Z,60.47
2019-06-19T07:58:37.290Z,58.15
2019-06-19T07:59:37.310Z,54.00
2019-06-19T08:00:37.305Z,56.58
2019-06-19T08:01:37.269Z,55.62
2019-06-19T08:02:37.241Z,55.72
2019-06-19T08:03:37.261Z,55.28
2019-06-19T08:04:37.247Z,55.16
2019-06-19T08:05:37.284Z,55.70
2019-06-19T08:06:37.166Z,55.01
2019-06-19T08:07:37.179Z,53.36
2019-06-19T08:08:37.153Z,52.68
2019-06-19T08:09:37.096Z,51.00
2019-06-19T08:10:37.115Z,54.38
2019-06-19T08:11:37.113Z,52.28
2019-06-19T08:12:37.091Z,53.34
2019-06-19T08:13:37.089Z,53.31
2019-06-19T08:14:37.029Z,55.01
2019-06-19T08:15:37.003Z,54.30
2019-06-19T08:16:36.972Z,51.67
2019-06-19T08:17:36.970Z,50.31
2019-06-19T08:18:36.943Z,49.16
2019-06-19T08:19:36.927Z,49.18
2019-06-19T08:20:36.917Z,52.50
2019-06-19T08:21:37.119Z,51.86
2019-06-19T08:22:36.874Z,54.22
2019-06-19T08:23:36.858Z,51.10
2019-06-19T08:24:36.842Z,50.31
2019-06-19T08:25:36.824Z,50.14
2019-06-19T08:26:36.812Z,50.16
2019-06-19T08:27:36.793Z,54.33
2019-06-19T08:28:36.771Z,54.05
2019-06-19T08:29:36.764Z,53.30
2019-06-19T08:30:36.756Z,53.09
2019-06-19T08:31:36.735Z,52.14
2019-06-19T08:32:36.721Z,52.40
2019-06-19T08:33:36.765Z,54.28
2019-06-19T08:34:48.832Z,53.13
2019-06-19T08:35:36.670Z,51.87
2019-06-19T08:36:36.646Z,51.57
2019-06-19T08:37:36.671Z,48.51
2019-06-19T08:38:36.630Z,48.81
2019-06-19T08:39:36.615Z,48.83
2019-06-19T08:40:36.586Z,48.93
2019-06-19T08:41:36.580Z,50.31
2019-06-19T08:42:36.560Z,47.43
2019-06-19T08:43:36.565Z,50.12
2019-06-19T08:44:36.509Z,46.81
2019-06-19T08:45:36.523Z,47.89
2019-06-19T08:46:36.506Z,47.91
2019-06-19T08:47:36.474Z,49.40
2019-06-19T08:48:36.470Z,47.47
2019-06-19T08:49:36.442Z,45.89
2019-06-19T08:50:36.411Z,47.25
2019-06-19T08:51:36.419Z,48.74
2019-06-19T08:52:36.395Z,50.68
2019-06-19T08:53:36.363Z,47.53
2019-06-19T08:54:36.366Z,46.10
2019-06-19T08:55:36.362Z,47.36
2019-06-19T08:56:36.323Z,50.16
2019-06-19T08:57:36.313Z,47.23
2019-06-19T08:58:36.279Z,49.03
2019-06-19T08:59:36.280Z,48.34
2019-06-19T09:00:36.265Z,44.37
2019-06-19T09:01:36.267Z,46.96
2019-06-19T09:02:36.237Z,46.88
2019-06-19T09:03:36.199Z,48.46
2019-06-19T09:04:36.181Z,42.99
2019-06-19T09:05:36.169Z,45.61
2019-06-19T09:06:36.190Z,44.62
2019-06-19T09:07:36.167Z,45.43
2019-06-19T09:08:36.127Z,48.07
2019-06-19T09:09:36.140Z,49.08
2019-06-19T09:10:36.127Z,46.44
2019-06-19T09:11:36.078Z,50.49
2019-06-19T09:12:36.095Z,47.23
2019-06-19T09:13:36.090Z,47.31
2019-06-19T09:14:36.056Z,49.43
2019-06-19T09:15:36.048Z,48.35
2019-06-19T09:16:35.985Z,50.34
2019-06-19T09:17:36.004Z,52.11
2019-06-19T09:18:35.974Z,49.16
2019-06-19T09:19:35.985Z,50.16
2019-06-19T09:20:35.955Z,47.88
2019-06-19T09:21:35.945Z,48.83
2019-06-19T09:22:35.905Z,49.35
2019-06-19T09:23:35.881Z,48.66
2019-06-19T09:24:35.859Z,47.11
2019-06-19T09:25:35.846Z,48.47
2019-06-19T09:26:35.828Z,49.04
2019-06-19T09:27:35.816Z,49.33
2019-06-19T09:28:35.806Z,52.09
2019-06-19T09:29:35.774Z,50.90
2019-06-19T09:30:35.765Z,49.13
2019-06-19T09:31:35.753Z,47.88
2019-06-19T09:32:35.740Z,46.55
2019-06-19T09:33:35.721Z,46.50
2019-06-19T09:34:49.504Z,51.03
2019-06-19T09:35:35.686Z,53.49
2019-06-19T09:36:35.664Z,51.64
2019-06-19T09:37:35.658Z,48.49
2019-06-19T09:38:35.644Z,52.78
2019-06-19T09:39:35.622Z,50.34
2019-06-19T09:40:35.624Z,47.97
2019-06-19T09:41:35.623Z,45.68
2019-06-19T09:42:35.603Z,47.75
2019-06-19T09:43:35.555Z,47.95
2019-06-19T09:44:36.406Z,46.62
2019-06-19T09:45:35.547Z,44.67
2019-06-19T09:46:35.550Z,47.97
2019-06-19T09:47:35.505Z,47.75
2019-06-19T09:48:35.488Z,48.94
2019-06-19T09:49:35.487Z,47.46
2019-06-19T09:50:35.507Z,47.78
2019-06-19T09:51:35.455Z,48.96
2019-06-19T09:52:35.432Z,47.70
2019-06-19T09:53:35.403Z,44.70
2019-06-19T09:54:35.381Z,47.66
2019-06-19T09:55:35.361Z,48.91
2019-06-19T09:56:35.341Z,44.85
2019-06-19T09:57:35.320Z,44.78
2019-06-19T09:58:35.297Z,46.94
2019-06-19T09:59:35.288Z,47.24
2019-06-19T10:00:35.273Z,43.57
2019-06-19T10:01:35.252Z,46.72
2019-06-19T10:02:35.237Z,48.59
2019-06-19T10:03:35.230Z,46.82
2019-06-19T10:04:35.296Z,48.00
2019-06-19T10:05:35.188Z,45.74
2019-06-19T10:06:35.200Z,46.65
2019-06-19T10:07:35.148Z,48.32
2019-06-19T10:08:35.139Z,48.49
2019-06-19T10:09:35.125Z,46.53
2019-06-19T10:10:35.138Z,46.35
2019-06-19T10:11:35.126Z,48.89
2019-06-19T10:12:35.086Z,47.41
2019-06-19T10:13:35.054Z,47.56
2019-06-19T10:14:35.052Z,43.85
2019-06-19T10:15:35.089Z,46.53
2019-06-19T10:16:35.018Z,44.48
2019-06-19T10:17:35.006Z,45.76
2019-06-19T10:18:34.949Z,42.49
2019-06-19T10:19:34.967Z,41.22
2019-06-19T10:20:34.971Z,40.84
2019-06-19T10:21:34.950Z,37.40
2019-06-19T10:22:34.898Z,37.51
2019-06-19T10:23:38.013Z,35.97
2019-06-19T10:24:34.901Z,36.96
2019-06-19T10:25:34.848Z,37.53
2019-06-19T10:26:35.157Z,38.02
2019-06-19T10:27:34.819Z,37.02
2019-06-19T10:28:34.808Z,38.38
2019-06-19T10:29:34.805Z,42.12
2019-06-19T10:30:34.754Z,41.93
2019-06-19T10:31:34.735Z,44.01
2019-06-19T10:32:34.717Z,46.59
2019-06-19T10:33:34.702Z,44.23
2019-06-19T10:34:34.730Z,44.15
2019-06-19T10:35:34.681Z,44.11
2019-06-19T10:36:34.653Z,45.76
2019-06-19T10:37:34.635Z,44.85
2019-06-19T10:38:34.607Z,46.33
2019-06-19T10:39:34.589Z,46.50
2019-06-19T10:40:34.597Z,47.91
2019-06-19T10:41:34.573Z,46.87
2019-06-19T10:42:34.564Z,45.98
2019-06-19T10:43:34.538Z,45.29
2019-06-19T10:44:34.509Z,43.05
2019-06-19T10:45:34.502Z,45.46
2019-06-19T10:46:41.287Z,45.08
2019-06-19T10:47:34.513Z,44.47
2019-06-19T10:48:34.455Z,48.24
2019-06-19T10:49:34.435Z,43.88
2019-06-19T10:50:34.436Z,42.95
2019-06-19T10:51:34.395Z,44.84
2019-06-19T10:52:34.375Z,46.91
2019-06-19T10:53:34.389Z,44.82
2019-06-19T10:54:34.347Z,44.94
2019-06-19T10:55:34.323Z,44.43
2019-06-19T10:56:34.296Z,44.11
2019-06-19T10:57:34.283Z,45.19
2019-06-19T10:58:34.272Z,44.88
2019-06-19T10:59:34.253Z,42.52
2019-06-19T11:00:34.241Z,42.67
2019-06-19T11:01:34.209Z,44.05
2019-06-19T11:02:34.202Z,47.56
2019-06-19T11:03:34.178Z,45.90
2019-06-19T11:04:34.161Z,42.36
2019-06-19T11:05:39.715Z,42.46
2019-06-19T11:06:34.123Z,42.55
2019-06-19T11:07:34.122Z,45.81
2019-06-19T11:08:34.170Z,45.00
2019-06-19T11:09:34.137Z,46.03
2019-06-19T11:10:34.063Z,45.62
2019-06-19T11:11:34.061Z,47.09
2019-06-19T11:12:34.023Z,46.01
2019-06-19T11:13:34.021Z,46.26
2019-06-19T11:14:34.066Z,48.47
2019-06-19T11:15:33.997Z,47.89
2019-06-19T11:16:33.972Z,47.45
2019-06-19T11:17:33.974Z,46.86
2019-06-19T11:18:33.985Z,47.25
2019-06-19T11:19:33.922Z,50.20
2019-06-19T11:20:33.908Z,46.02
2019-06-19T11:21:33.866Z,47.34
2019-06-19T11:22:33.858Z,46.04
2019-06-19T11:23:33.840Z,47.44
2019-06-19T11:24:33.828Z,48.65
2019-06-19T11:25:33.797Z,48.94
2019-06-19T11:26:33.798Z,43.63
2019-06-19T11:27:33.743Z,46.48
2019-06-19T11:28:33.732Z,47.88
2019-06-19T11:29:33.711Z,43.85
2019-06-19T11:30:33.698Z,41.37
2019-06-19T11:31:33.680Z,43.63
2019-06-19T11:32:33.660Z,42.59
2019-06-19T11:33:33.644Z,46.33
2019-06-19T11:34:33.642Z,46.58
2019-06-19T11:35:33.604Z,46.22
2019-06-19T11:36:33.605Z,48.63
2019-06-19T11:37:33.583Z,49.82
2019-06-19T11:38:33.556Z,51.42
2019-06-19T11:39:33.557Z,45.90
2019-06-19T11:40:36.679Z,45.68
2019-06-19T11:41:33.549Z,48.01
2019-06-19T11:42:33.481Z,46.25
2019-06-19T11:43:33.458Z,45.86
2019-06-19T11:44:33.457Z,45.56
2019-06-19T11:45:33.426Z,46.33
2019-06-19T11:46:33.423Z,46.74
2019-06-19T11:47:33.415Z,51.96
2019-06-19T11:48:33.371Z,47.47
2019-06-19T11:49:33.375Z,47.69
2019-06-19T11:50:33.365Z,47.81
2019-06-19T11:51:33.346Z,46.46
2019-06-19T11:52:33.306Z,46.04
2019-06-19T11:53:33.374Z,47.93
2019-06-19T11:54:33.310Z,46.73
2019-06-19T11:55:33.309Z,50.24
2019-06-19T11:56:33.275Z,46.78
2019-06-19T11:57:33.213Z,45.44
2019-06-19T11:58:33.387Z,47.45
2019-06-19T11:59:33.167Z,49.43
2019-06-19T12:00:33.950Z,47.81
2019-06-19T12:01:33.136Z,45.38
2019-06-19T12:02:33.119Z,47.52
2019-06-19T12:03:33.105Z,51.93
2019-06-19T12:04:33.072Z,45.24
2019-06-19T12:05:33.064Z,47.47
2019-06-19T12:06:33.058Z,50.09
2019-06-19T12:07:33.014Z,50.66
2019-06-19T12:08:33.039Z,51.81
2019-06-19T12:09:33.016Z,55.41
2019-06-19T12:10:32.974Z,51.56
2019-06-19T12:11:32.954Z,57.70
2019-06-19T12:12:32.928Z,54.57
2019-06-19T12:13:32.939Z,54.23
2019-06-19T12:14:32.901Z,55.24
2019-06-19T12:15:32.880Z,51.32
2019-06-19T12:16:32.872Z,58.20
2019-06-19T12:17:32.838Z,58.06
2019-06-19T12:18:32.854Z,48.96
2019-06-19T12:19:32.852Z,45.02
2019-06-19T12:20:32.797Z,46.74
2019-06-19T12:21:32.806Z,47.01
2019-06-19T12:22:32.772Z,45.59
2019-06-19T12:23:32.762Z,48.87
2019-06-19T12:24:32.762Z,49.16
2019-06-19T12:25:32.697Z,48.85
2019-06-19T12:26:32.680Z,52.93
2019-06-19T12:27:32.669Z,52.34
2019-06-19T12:28:32.637Z,53.10
2019-06-19T12:29:32.664Z,50.98
2019-06-19T12:30:32.626Z,47.30
2019-06-19T12:31:32.606Z,50.98
2019-06-19T12:32:32.541Z,48.18
2019-06-19T12:33:32.632Z,48.52
2019-06-19T12:34:32.506Z,54.14
2019-06-19T12:35:32.485Z,41.37
2019-06-19T12:36:32.467Z,40.90
2019-06-19T12:37:32.516Z,40.21
2019-06-19T12:38:32.463Z,40.98
2019-06-19T12:39:32.430Z,39.90
2019-06-19T12:40:32.394Z,39.47
2019-06-19T12:41:32.383Z,40.56
2019-06-19T12:42:32.364Z,41.86
2019-06-19T12:43:32.367Z,37.93
2019-06-19T12:44:32.329Z,35.47
2019-06-19T12:45:32.307Z,40.08
2019-06-19T12:46:32.287Z,40.76
2019-06-19T12:47:32.302Z,40.41
2019-06-19T12:48:32.258Z,36.38
2019-06-19T12:49:32.245Z,36.63
2019-06-19T12:50:32.209Z,36.15
2019-06-19T12:51:32.210Z,36.16
2019-06-19T12:52:32.207Z,36.36